createdAt,value
2022-10-26T00:02:39.790Z,84.06
2022-10-26T00:07:48.079Z,84.05
2022-10-26T00:12:56.916Z,84.04
2022-10-26T00:18:05.781Z,84.03
2022-10-26T00:23:14.097Z,84.02
2022-10-26T00:28:22.378Z,84.01
2022-10-26T00:33:30.876Z,83.97
2022-10-26T00:38:40.003Z,83.92
2022-10-26T00:43:48.931Z,83.86
2022-10-26T00:49:01.807Z,83.82
2022-10-26T00:54:14.216Z,83.80
2022-10-26T00:59:23.590Z,83.79
2022-10-26T01:04:31.726Z,83.77
2022-10-26T01:09:40.222Z,83.76
2022-10-26T01:14:48.586Z,83.73
2022-10-26T01:20:36.057Z,83.69
2022-10-26T01:26:14.733Z,83.62
2022-10-26T01:31:31.197Z,83.53
2022-10-26T01:36:46.490Z,83.45
2022-10-26T01:41:58.099Z,83.37
2022-10-26T01:47:08.792Z,83.30
2022-10-26T01:52:17.578Z,83.24
2022-10-26T01:57:25.871Z,83.17
2022-10-26T02:02:50.390Z,83.16
2022-10-26T02:08:07.823Z,83.19
2022-10-26T02:13:23.536Z,83.23
2022-10-26T02:18:38.220Z,83.27
2022-10-26T02:23:49.854Z,83.32
2022-10-26T02:29:03.595Z,83.33
2022-10-26T02:34:15.415Z,83.35
2022-10-26T02:39:25.634Z,83.34
2022-10-26T02:44:39.526Z,83.32
2022-10-26T02:49:47.934Z,83.31
2022-10-26T02:55:03.222Z,83.30
2022-10-26T03:00:15.239Z,83.30
2022-10-26T03:05:26.506Z,83.33
2022-10-26T03:10:38.955Z,83.37
2022-10-26T03:15:47.053Z,83.38
2022-10-26T03:20:55.268Z,83.39
2022-10-26T03:26:03.816Z,83.39
2022-10-26T03:31:12.556Z,83.39
2022-10-26T03:36:19.096Z,83.38
2022-10-26T03:41:27.517Z,83.58
2022-10-26T03:46:36.069Z,83.66
2022-10-26T03:51:44.427Z,83.55
2022-10-26T03:56:55.181Z,83.42
2022-10-26T04:02:03.687Z,83.30
2022-10-26T04:07:11.752Z,83.23
2022-10-26T04:12:20.156Z,83.19
2022-10-26T04:17:28.906Z,83.18
2022-10-26T04:22:37.677Z,83.18
2022-10-26T04:27:46.079Z,83.16
2022-10-26T04:32:54.549Z,83.15
2022-10-26T04:38:07.970Z,83.14
2022-10-26T04:43:16.841Z,83.14
2022-10-26T04:53:40.277Z,83.16
2022-10-26T04:58:48.557Z,83.18
2022-10-26T05:03:57.271Z,83.21
2022-10-26T05:09:05.830Z,83.24
2022-10-26T05:14:14.805Z,83.26
2022-10-26T05:19:23.222Z,83.30
2022-10-26T05:24:31.575Z,83.34
2022-10-26T05:29:40.300Z,83.38
2022-10-26T05:34:49.001Z,83.40
2022-10-26T05:39:57.241Z,83.45
2022-10-26T05:45:05.556Z,83.47
2022-10-26T05:50:15.103Z,83.52
2022-10-26T05:55:25.257Z,83.55
2022-10-26T06:00:35.357Z,83.60
2022-10-26T06:05:54.047Z,83.66
2022-10-26T06:11:07.554Z,83.75
2022-10-26T06:16:33.941Z,84.26
2022-10-26T06:21:59.701Z,84.47
2022-10-26T06:27:19.554Z,84.44
2022-10-26T06:32:28.989Z,84.39
2022-10-26T06:37:39.465Z,84.31
2022-10-26T06:42:47.888Z,84.21
2022-10-26T06:48:05.075Z,84.12
2022-10-26T06:53:24.028Z,84.05
2022-10-26T06:58:35.380Z,83.96
2022-10-26T07:03:44.663Z,83.92
2022-10-26T07:08:53.512Z,83.89
2022-10-26T07:14:01.192Z,83.84
2022-10-26T07:19:09.710Z,83.81
2022-10-26T07:24:17.973Z,83.81
2022-10-26T07:29:27.030Z,83.73
2022-10-26T07:34:35.314Z,83.62
2022-10-26T07:39:43.662Z,83.57
2022-10-26T07:44:52.033Z,83.52
2022-10-26T07:50:00.170Z,83.51
2022-10-26T07:55:09.943Z,83.44
2022-10-26T08:00:19.893Z,83.41
2022-10-26T08:05:28.282Z,83.26
2022-10-26T08:10:36.828Z,83.08
2022-10-26T08:15:45.540Z,83.03
2022-10-26T08:20:56.375Z,82.99
2022-10-26T08:26:12.779Z,82.97
2022-10-26T08:31:21.642Z,82.97
2022-10-26T08:36:31.197Z,82.94
2022-10-26T08:41:43.387Z,82.86
2022-10-26T08:46:52.504Z,82.79
2022-10-26T08:52:03.882Z,82.86
2022-10-26T08:57:21.458Z,82.79
2022-10-26T09:03:20.828Z,82.77
2022-10-26T09:08:37.242Z,82.76
2022-10-26T09:14:00.522Z,82.68
2022-10-26T09:19:29.178Z,82.68
2022-10-26T09:24:41.008Z,82.62
2022-10-26T09:29:49.922Z,82.53
2022-10-26T09:35:01.514Z,82.52
2022-10-26T09:40:17.399Z,82.48
2022-10-26T09:45:30.837Z,82.43
2022-10-26T09:50:41.627Z,82.39
2022-10-26T09:55:51.373Z,82.34
2022-10-26T10:00:59.322Z,82.33
2022-10-26T10:06:21.639Z,82.27
2022-10-26T10:11:41.953Z,82.17
2022-10-26T10:16:57.315Z,82.14
2022-10-26T10:22:20.514Z,82.06
2022-10-26T10:27:29.041Z,82.04
2022-10-26T10:32:39.194Z,82.02
2022-10-26T10:37:48.224Z,81.99
2022-10-26T10:43:04.128Z,81.96
2022-10-26T10:48:20.852Z,82.00
2022-10-26T10:53:33.564Z,81.94
2022-10-26T10:58:52.385Z,81.92
2022-10-26T11:04:19.169Z,81.82
2022-10-26T11:09:30.196Z,81.75
2022-10-26T11:14:44.161Z,81.67
2022-10-26T11:19:57.818Z,81.51
2022-10-26T11:25:08.929Z,81.49
2022-10-26T11:30:22.064Z,81.40
2022-10-26T11:35:34.269Z,80.98
2022-10-26T11:40:44.287Z,80.73
2022-10-26T11:46:01.966Z,80.92
2022-10-26T11:51:19.691Z,80.64
2022-10-26T11:56:35.708Z,80.43
2022-10-26T12:01:43.117Z,80.36
2022-10-26T12:06:53.640Z,80.32
2022-10-26T12:12:06.484Z,80.33
2022-10-26T12:17:18.490Z,80.18
2022-10-26T12:22:35.834Z,80.09
2022-10-26T12:27:56.816Z,80.00
2022-10-26T12:33:05.787Z,79.95
2022-10-26T12:38:56.528Z,79.94
2022-10-26T12:44:33.045Z,80.00
2022-10-26T12:50:02.966Z,79.88
2022-10-26T12:55:43.436Z,79.61
2022-10-26T13:01:09.943Z,79.46
2022-10-26T13:06:36.063Z,79.27
2022-10-26T13:11:49.198Z,79.23
2022-10-26T13:16:57.415Z,79.06
2022-10-26T13:22:05.333Z,78.84
2022-10-26T13:27:27.747Z,78.65
2022-10-26T13:32:38.005Z,78.53
2022-10-26T13:37:50.016Z,78.32
2022-10-26T13:43:00.525Z,78.43
2022-10-26T13:48:15.194Z,78.24
2022-10-26T13:53:29.755Z,78.18
2022-10-26T13:58:43.639Z,77.97
2022-10-26T14:03:51.875Z,77.64
2022-10-26T14:09:02.051Z,77.52
2022-10-26T14:14:15.810Z,77.35
2022-10-26T14:19:27.793Z,77.31
2022-10-26T14:24:53.101Z,77.23
2022-10-26T14:30:21.582Z,77.05
2022-10-26T14:35:33.881Z,77.04
2022-10-26T14:40:41.719Z,76.87
2022-10-26T14:45:52.305Z,76.81
2022-10-26T14:51:08.938Z,76.73
2022-10-26T14:56:26.955Z,76.60
2022-10-26T15:01:49.994Z,76.45
2022-10-26T15:07:10.253Z,76.20
2022-10-26T15:12:24.980Z,76.05
2022-10-26T15:17:39.659Z,75.92
2022-10-26T15:22:51.406Z,75.77
2022-10-26T15:28:10.641Z,75.54
2022-10-26T15:33:24.075Z,75.31
2022-10-26T15:38:32.147Z,75.23
2022-10-26T15:43:39.757Z,75.18
2022-10-26T15:48:50.426Z,75.09
2022-10-26T15:53:58.958Z,74.95
2022-10-26T15:59:08.236Z,74.79
2022-10-26T16:04:16.089Z,74.66
2022-10-26T16:09:23.872Z,74.61
2022-10-26T16:14:33.515Z,74.56
2022-10-26T16:19:46.122Z,74.64
2022-10-26T16:24:53.591Z,74.77
2022-10-26T16:30:01.153Z,74.94
2022-10-26T16:35:09.721Z,75.07
2022-10-26T16:40:18.061Z,75.17
2022-10-26T16:45:25.908Z,75.27
2022-10-26T16:50:36.296Z,75.24
2022-10-26T16:55:44.525Z,75.10
2022-10-26T17:00:57.800Z,74.78
2022-10-26T17:06:08.440Z,74.66
2022-10-26T17:11:18.020Z,74.44
2022-10-26T17:16:26.512Z,74.08
2022-10-26T17:21:35.960Z,73.83
2022-10-26T17:26:43.623Z,73.63
2022-10-26T17:31:51.601Z,73.65
2022-10-26T17:36:58.963Z,73.73
2022-10-26T17:42:07.123Z,74.04
2022-10-26T17:47:14.531Z,74.57
2022-10-26T17:52:25.240Z,74.95
2022-10-26T17:57:33.758Z,75.46
2022-10-26T18:02:42.021Z,75.95
2022-10-26T18:07:49.763Z,76.37
2022-10-26T18:12:57.835Z,76.69
2022-10-26T18:18:05.363Z,76.90
2022-10-26T18:23:12.840Z,77.12
2022-10-26T18:28:20.353Z,77.31
2022-10-26T18:33:28.017Z,77.53
2022-10-26T18:38:35.939Z,77.75
2022-10-26T18:43:46.479Z,77.99
2022-10-26T18:48:54.496Z,78.21
2022-10-26T18:54:03.065Z,78.36
2022-10-26T18:59:10.977Z,78.49
2022-10-26T19:04:18.960Z,78.60
2022-10-26T19:09:27.003Z,78.72
2022-10-26T19:14:34.608Z,78.81
2022-10-26T19:19:42.190Z,78.89
2022-10-26T19:24:49.599Z,78.94
2022-10-26T19:29:56.982Z,78.99
2022-10-26T19:35:04.624Z,79.07
2022-10-26T19:40:13.932Z,79.21
2022-10-26T19:45:22.617Z,79.28
2022-10-26T19:50:30.264Z,79.41
2022-10-26T19:55:37.902Z,79.53
2022-10-26T20:00:45.807Z,79.65
2022-10-26T20:05:53.813Z,79.76
2022-10-26T20:11:01.690Z,79.85
2022-10-26T20:16:11.025Z,79.93
2022-10-26T20:21:19.159Z,79.95
2022-10-26T20:26:28.530Z,79.92
2022-10-26T20:31:36.886Z,79.89
2022-10-26T20:36:44.379Z,79.87
2022-10-26T20:41:53.466Z,79.85
2022-10-26T20:47:02.325Z,79.85
2022-10-26T20:52:22.169Z,79.86
2022-10-26T20:57:34.079Z,79.92
2022-10-26T21:02:41.860Z,79.99
2022-10-26T21:07:49.591Z,80.08
2022-10-26T21:12:57.101Z,80.19
2022-10-26T21:18:04.715Z,80.32
2022-10-26T21:23:12.266Z,80.42
2022-10-26T21:28:19.715Z,80.53
2022-10-26T21:33:32.614Z,80.60
2022-10-26T21:38:40.957Z,80.69
2022-10-26T21:43:59.145Z,80.80
2022-10-26T21:49:16.537Z,80.80
2022-10-26T21:54:24.303Z,80.86
2022-10-26T21:59:31.768Z,80.92
2022-10-26T22:04:39.347Z,80.97
2022-10-26T22:10:00.281Z,80.98
2022-10-26T22:15:14.746Z,81.04
2022-10-26T22:20:22.481Z,81.12
2022-10-26T22:25:29.858Z,81.20
2022-10-26T22:30:40.110Z,81.31
2022-10-26T22:35:46.869Z,81.43
2022-10-26T22:40:59.534Z,82.05
2022-10-26T22:46:08.982Z,82.21
2022-10-26T22:51:21.065Z,82.12
2022-10-26T22:56:30.267Z,82.10
2022-10-26T23:01:42.162Z,82.11
2022-10-26T23:06:50.159Z,82.08
2022-10-26T23:11:57.792Z,82.04
2022-10-26T23:17:06.585Z,82.13
2022-10-26T23:22:14.389Z,82.17
2022-10-26T23:27:21.706Z,82.16
2022-10-26T23:32:30.149Z,82.21
2022-10-26T23:37:37.982Z,82.24
2022-10-26T23:42:46.021Z,82.25
2022-10-26T23:47:54.051Z,82.28
2022-10-26T23:53:01.863Z,82.34
2022-10-26T23:58:09.322Z,82.36
